createdAt,value
2016-02-17T00:00:36.827Z,0
2016-02-17T00:01:36.829Z,0
2016-02-17T00:02:36.832Z,0
2016-02-17T00:03:36.677Z,0
2016-02-17T00:04:36.838Z,0
2016-02-17T00:05:36.841Z,0
2016-02-17T00:06:36.827Z,0
2016-02-17T00:07:36.814Z,0
2016-02-17T00:08:36.816Z,0
2016-02-17T00:09:36.819Z,0
2016-02-17T00:10:36.821Z,0
2016-02-17T00:11:36.825Z,0
2016-02-17T00:12:36.812Z,0
2016-02-17T00:13:36.830Z,0
2016-02-17T00:14:36.833Z,0
2016-02-17T00:15:36.835Z,0
2016-02-17T00:16:36.823Z,0
2016-02-17T00:17:36.840Z,0
2016-02-17T00:18:36.828Z,0
2016-02-17T00:19:36.800Z,0
2016-02-17T00:20:36.802Z,0
2016-02-17T00:21:36.805Z,0
2016-02-17T00:22:36.808Z,0
2016-02-17T00:23:36.810Z,0
2016-02-17T00:24:36.813Z,0
2016-02-17T00:25:36.800Z,0
2016-02-17T00:26:36.803Z,0
2016-02-17T00:27:36.806Z,0
2016-02-17T00:28:36.808Z,0
2016-02-17T00:29:36.811Z,0
2016-02-17T00:30:36.802Z,0
2016-02-17T00:31:36.805Z,0
2016-02-17T00:32:36.808Z,0
2016-02-17T00:33:36.811Z,0
2016-02-17T00:34:36.798Z,0
2016-02-17T00:35:36.801Z,0
2016-02-17T00:36:36.804Z,0
2016-02-17T00:37:36.837Z,0
2016-02-17T00:38:36.809Z,0
2016-02-17T00:39:36.795Z,0
2016-02-17T00:40:36.799Z,0
2016-02-17T00:41:36.785Z,0
2016-02-17T00:42:36.788Z,0
2016-02-17T00:43:36.790Z,0
2016-02-17T00:44:36.793Z,0
2016-02-17T00:45:36.812Z,0
2016-02-17T00:46:36.784Z,0
2016-02-17T00:47:36.786Z,0
2016-02-17T00:48:36.789Z,0
2016-02-17T00:49:36.792Z,0
2016-02-17T00:50:36.809Z,0
2016-02-17T00:51:36.812Z,0
2016-02-17T00:52:36.767Z,0
2016-02-17T00:53:36.771Z,0
2016-02-17T00:54:36.773Z,0
2016-02-17T00:55:36.761Z,0
2016-02-17T00:56:36.794Z,0
2016-02-17T00:57:36.781Z,0
2016-02-17T00:58:36.800Z,0
2016-02-17T00:59:36.786Z,0
2016-02-17T01:00:36.805Z,0
2016-02-17T01:01:36.777Z,0
2016-02-17T01:02:36.780Z,0
2016-02-17T01:03:36.782Z,0
2016-02-17T01:04:36.785Z,0
2016-02-17T01:05:36.771Z,0
2016-02-17T01:06:36.791Z,0
2016-02-17T01:07:36.793Z,0
2016-02-17T01:08:36.796Z,0
2016-02-17T01:09:36.782Z,0
2016-02-17T01:10:36.816Z,0
2016-02-17T01:11:36.757Z,0
2016-02-17T01:12:36.759Z,0
2016-02-17T01:13:36.762Z,0
2016-02-17T01:14:36.765Z,0
2016-02-17T01:15:36.767Z,0
2016-02-17T01:16:36.751Z,0
2016-02-17T01:17:36.754Z,0
2016-02-17T01:18:36.757Z,0
2016-02-17T01:19:36.760Z,0
2016-02-17T01:20:36.778Z,0
2016-02-17T01:21:36.750Z,0
2016-02-17T01:22:36.752Z,0
2016-02-17T01:23:36.756Z,0
2016-02-17T01:24:36.726Z,0
2016-02-17T01:25:36.745Z,0
2016-02-17T01:26:36.764Z,0
2016-02-17T01:27:36.734Z,0
2016-02-17T01:28:36.737Z,0
2016-02-17T01:29:36.756Z,0
2016-02-17T01:30:36.742Z,0
2016-02-17T01:31:36.745Z,0
2016-02-17T01:32:36.748Z,0
2016-02-17T01:33:36.750Z,0
2016-02-17T01:34:36.738Z,0
2016-02-17T01:35:36.740Z,0
2016-02-17T01:36:36.744Z,0
2016-02-17T01:37:36.730Z,0
2016-02-17T01:38:36.733Z,0
2016-02-17T01:39:36.735Z,0
2016-02-17T01:40:36.738Z,0
2016-02-17T01:41:36.741Z,0
2016-02-17T01:42:36.743Z,0
2016-02-17T01:43:36.746Z,0
2016-02-17T01:44:36.718Z,0
2016-02-17T01:45:36.737Z,0
2016-02-17T01:46:36.739Z,0
2016-02-17T01:47:36.726Z,0
2016-02-17T01:48:36.713Z,0
2016-02-17T01:49:36.731Z,0
2016-02-17T01:50:36.718Z,0
2016-02-17T01:51:36.720Z,0
2016-02-17T01:52:36.723Z,0
2016-02-17T01:53:36.742Z,0
2016-02-17T01:54:36.714Z,0
2016-02-17T01:55:36.716Z,0
2016-02-17T01:56:36.719Z,0
2016-02-17T01:57:36.722Z,0
2016-02-17T01:58:36.709Z,0
2016-02-17T01:59:36.711Z,0
2016-02-17T02:00:36.714Z,0
2016-02-17T02:01:36.748Z,0
2016-02-17T02:02:36.719Z,0
2016-02-17T02:03:36.706Z,0
2016-02-17T02:04:36.740Z,0
2016-02-17T02:05:36.727Z,0
2016-02-17T02:06:36.714Z,0
2016-02-17T02:07:36.716Z,0
2016-02-17T02:08:36.705Z,0
2016-02-17T02:09:36.707Z,0
2016-02-17T02:10:36.710Z,0
2016-02-17T02:11:36.713Z,0
2016-02-17T02:12:36.715Z,0
2016-02-17T02:13:36.718Z,0
2016-02-17T02:14:36.721Z,0
2016-02-17T02:15:36.692Z,0
2016-02-17T02:16:36.710Z,0
2016-02-17T02:17:36.713Z,0
2016-02-17T02:18:36.701Z,0
2016-02-17T02:19:36.703Z,0
2016-02-17T02:20:36.705Z,0
2016-02-17T02:21:36.708Z,0
2016-02-17T02:22:36.711Z,0
2016-02-17T02:23:36.714Z,0
2016-02-17T02:24:36.716Z,0
2016-02-17T02:25:36.704Z,0
2016-02-17T02:26:36.691Z,0
2016-02-17T02:27:36.694Z,0
2016-02-17T02:28:36.712Z,0
2016-02-17T02:29:36.699Z,0
2016-02-17T02:30:36.702Z,0
2016-02-17T02:31:36.704Z,0
2016-02-17T02:32:36.676Z,0
2016-02-17T02:33:36.678Z,0
2016-02-17T02:34:36.682Z,0
2016-02-17T02:35:36.684Z,0
2016-02-17T02:36:36.703Z,0
2016-02-17T02:37:36.689Z,0
2016-02-17T02:38:36.692Z,0
2016-02-17T02:39:36.695Z,0
2016-02-17T02:40:36.681Z,0
2016-02-17T02:41:36.700Z,0
2016-02-17T02:42:36.687Z,0
2016-02-17T02:43:36.534Z,0
2016-02-17T02:44:36.692Z,0
2016-02-17T02:45:36.680Z,0
2016-02-17T02:46:36.683Z,0
2016-02-17T02:47:36.670Z,0
2016-02-17T02:48:36.657Z,0
2016-02-17T02:49:36.660Z,0
2016-02-17T02:50:36.677Z,0
2016-02-17T02:51:36.665Z,0
2016-02-17T02:52:36.652Z,0
2016-02-17T02:53:36.670Z,0
2016-02-17T02:54:36.657Z,0
2016-02-17T02:55:36.676Z,0
2016-02-17T02:56:36.663Z,0
2016-02-17T02:57:36.666Z,0
2016-02-17T02:58:36.652Z,0
2016-02-17T02:59:36.687Z,0
2016-02-17T03:00:36.657Z,0
2016-02-17T03:01:36.692Z,0
2016-02-17T03:02:36.662Z,0
2016-02-17T03:03:36.666Z,0
2016-02-17T03:04:36.653Z,0
2016-02-17T03:05:36.671Z,0
2016-02-17T03:06:36.642Z,0
2016-02-17T03:07:36.661Z,0
2016-02-17T03:08:36.648Z,0
2016-02-17T03:09:36.666Z,0
2016-02-17T03:10:36.637Z,0
2016-02-17T03:11:36.656Z,0
2016-02-17T03:12:36.643Z,0
2016-02-17T03:13:36.489Z,0
2016-02-17T03:14:36.664Z,0
2016-02-17T03:15:36.666Z,0
2016-02-17T03:16:36.639Z,0
2016-02-17T03:17:36.672Z,0
2016-02-17T03:18:36.628Z,0
2016-02-17T03:19:36.630Z,0
2016-02-17T03:20:36.633Z,0
2016-02-17T03:21:36.636Z,0
2016-02-17T03:22:36.638Z,0
2016-02-17T03:23:36.626Z,0
2016-02-17T03:24:36.629Z,0
2016-02-17T03:25:36.632Z,0
2016-02-17T03:26:36.634Z,0
2016-02-17T03:27:36.637Z,0
2016-02-17T03:28:36.640Z,0
2016-02-17T03:29:36.626Z,0
2016-02-17T03:30:36.645Z,0
2016-02-17T03:31:36.631Z,0
2016-02-17T03:32:36.619Z,0
2016-02-17T03:33:36.621Z,0
2016-02-17T03:34:36.624Z,0
2016-02-17T03:35:36.627Z,0
2016-02-17T03:36:36.629Z,0
2016-02-17T03:37:36.664Z,0
2016-02-17T03:38:36.619Z,0
2016-02-17T03:39:36.622Z,0
2016-02-17T03:40:36.625Z,0
2016-02-17T03:41:36.612Z,0
2016-02-17T03:42:36.630Z,0
2016-02-17T03:43:36.617Z,0
2016-02-17T03:44:36.619Z,0
2016-02-17T03:45:36.606Z,0
2016-02-17T03:46:36.625Z,0
2016-02-17T03:47:36.612Z,0
2016-02-17T03:48:36.646Z,0
2016-02-17T03:49:36.602Z,0
2016-02-17T03:50:36.652Z,0
2016-02-17T03:51:36.607Z,0
2016-02-17T03:52:36.625Z,0
2016-02-17T03:53:36.597Z,0
2016-02-17T03:54:36.600Z,0
2016-02-17T03:55:36.602Z,0
2016-02-17T03:56:36.621Z,0
2016-02-17T03:57:36.608Z,0
2016-02-17T03:58:36.610Z,0
2016-02-17T03:59:36.598Z,0
2016-02-17T04:00:36.600Z,0
2016-02-17T04:01:36.588Z,0
2016-02-17T04:02:36.606Z,0
2016-02-17T04:03:36.609Z,0
2016-02-17T04:04:36.580Z,0
2016-02-17T04:05:36.614Z,0
2016-02-17T04:06:36.601Z,0
2016-02-17T04:07:36.587Z,0
2016-02-17T04:08:36.590Z,0
2016-02-17T04:09:36.578Z,0
2016-02-17T04:10:36.612Z,0
2016-02-17T04:11:36.583Z,0
2016-02-17T04:12:36.586Z,0
2016-02-17T04:13:36.603Z,0
2016-02-17T04:14:36.622Z,0
2016-02-17T04:15:36.578Z,0
2016-02-17T04:16:36.581Z,0
2016-02-17T04:17:36.583Z,0
2016-02-17T04:18:36.602Z,0
2016-02-17T04:19:36.573Z,0
2016-02-17T04:20:36.575Z,0
2016-02-17T04:21:36.594Z,0
2016-02-17T04:22:36.566Z,0
2016-02-17T04:23:36.584Z,0
2016-02-17T04:24:36.571Z,0
2016-02-17T04:25:36.574Z,0
2016-02-17T04:26:36.561Z,0
2016-02-17T04:27:36.579Z,0
2016-02-17T04:28:36.566Z,0
2016-02-17T04:29:36.568Z,0
2016-02-17T04:30:36.556Z,0
2016-02-17T04:31:36.559Z,0
2016-02-17T04:32:36.562Z,0
2016-02-17T04:33:36.565Z,0
2016-02-17T04:34:36.551Z,0
2016-02-17T04:35:36.585Z,0
2016-02-17T04:36:36.556Z,0
2016-02-17T04:37:36.590Z,0
2016-02-17T04:38:36.546Z,0
2016-02-17T04:39:36.549Z,0
2016-02-17T04:40:36.567Z,0
2016-02-17T04:41:36.554Z,0
2016-02-17T04:42:36.572Z,0
2016-02-17T04:43:36.387Z,0
2016-02-17T04:44:36.547Z,0
2016-02-17T04:45:36.549Z,0
2016-02-17T04:46:36.553Z,0
2016-02-17T04:47:36.555Z,0
2016-02-17T04:48:36.542Z,0
2016-02-17T04:49:36.545Z,0
2016-02-17T04:50:36.563Z,0
2016-02-17T04:51:36.534Z,0
2016-02-17T04:52:36.553Z,0
2016-02-17T04:53:36.539Z,0
2016-02-17T04:54:36.542Z,0
2016-02-17T04:55:36.545Z,0
2016-02-17T04:56:36.532Z,0
2016-02-17T04:57:36.535Z,0
2016-02-17T04:58:36.552Z,0
2016-02-17T04:59:36.540Z,0
2016-02-17T05:00:36.527Z,0
2016-02-17T05:01:36.530Z,0
2016-02-17T05:02:36.533Z,0
2016-02-17T05:03:36.535Z,0
2016-02-17T05:04:36.523Z,0
2016-02-17T05:05:36.525Z,0
2016-02-17T05:06:36.528Z,0
2016-02-17T05:07:36.515Z,0
2016-02-17T05:08:36.534Z,0
2016-02-17T05:09:36.521Z,0
2016-02-17T05:10:36.523Z,0
2016-02-17T05:11:36.510Z,0
2016-02-17T05:12:36.512Z,0
2016-02-17T05:13:36.515Z,0
2016-02-17T05:14:36.517Z,0
2016-02-17T05:15:36.521Z,0
2016-02-17T05:16:36.523Z,0
2016-02-17T05:17:36.511Z,0
2016-02-17T05:18:36.514Z,0
2016-02-17T05:19:36.516Z,0
2016-02-17T05:20:36.519Z,0
2016-02-17T05:21:36.521Z,0
2016-02-17T05:22:36.524Z,0
2016-02-17T05:23:36.511Z,0
2016-02-17T05:24:36.530Z,0
2016-02-17T05:25:36.517Z,0
2016-02-17T05:26:36.519Z,0
2016-02-17T05:27:36.506Z,0
2016-02-17T05:28:36.508Z,0
2016-02-17T05:29:36.496Z,0
2016-02-17T05:30:36.483Z,0
2016-02-17T05:31:36.517Z,0
2016-02-17T05:32:36.504Z,0
2016-02-17T05:33:36.491Z,0
2016-02-17T05:34:36.509Z,0
2016-02-17T05:35:36.496Z,0
2016-02-17T05:36:36.515Z,0
2016-02-17T05:37:36.502Z,0
2016-02-17T05:38:36.505Z,0
2016-02-17T05:39:36.492Z,0
2016-02-17T05:40:36.510Z,0
2016-02-17T05:41:36.481Z,0
2016-02-17T05:42:36.484Z,0
2016-02-17T05:43:36.502Z,0
2016-02-17T05:44:36.474Z,0
2016-02-17T05:45:36.492Z,0
2016-02-17T05:46:36.479Z,0
2016-02-17T05:47:36.467Z,0
2016-02-17T05:48:36.469Z,0
2016-02-17T05:49:36.487Z,0
2016-02-17T05:50:36.458Z,0
2016-02-17T05:51:36.492Z,0
2016-02-17T05:52:36.480Z,0
2016-02-17T05:53:36.483Z,0
2016-02-17T05:54:36.486Z,0
2016-02-17T05:55:36.488Z,0
2016-02-17T05:56:36.459Z,0
2016-02-17T05:57:36.477Z,0
2016-02-17T05:58:36.464Z,0
2016-02-17T05:59:36.466Z,0
2016-02-17T06:00:36.470Z,0
2016-02-17T06:01:36.458Z,0
2016-02-17T06:02:36.460Z,0
2016-02-17T06:03:36.477Z,0
2016-02-17T06:04:36.465Z,0
2016-02-17T06:05:36.483Z,0
2016-02-17T06:06:36.454Z,0
2016-02-17T06:07:36.474Z,0
2016-02-17T06:08:36.460Z,0
2016-02-17T06:09:36.463Z,0
2016-02-17T06:10:36.450Z,4
2016-02-17T06:11:36.468Z,4
2016-02-17T06:12:36.471Z,4
2016-02-17T06:13:36.473Z,0
2016-02-17T06:14:36.462Z,4
2016-02-17T06:15:36.464Z,4
2016-02-17T06:16:36.466Z,4
2016-02-17T06:17:36.453Z,8
2016-02-17T06:18:36.440Z,4
2016-02-17T06:19:36.443Z,4
2016-02-17T06:20:36.446Z,8
2016-02-17T06:21:36.448Z,8
2016-02-17T06:22:36.450Z,8
2016-02-17T06:23:36.470Z,8
2016-02-17T06:24:36.457Z,12
2016-02-17T06:25:36.459Z,8
2016-02-17T06:26:36.431Z,12
2016-02-17T06:27:36.464Z,16
2016-02-17T06:28:36.420Z,16
2016-02-17T06:29:36.469Z,16
2016-02-17T06:30:36.269Z,20
2016-02-17T06:31:36.444Z,20
2016-02-17T06:32:36.431Z,20
2016-02-17T06:33:36.450Z,20
2016-02-17T06:34:36.421Z,20
2016-02-17T06:35:36.439Z,28
2016-02-17T06:36:36.426Z,24
2016-02-17T06:37:36.444Z,24
2016-02-17T06:38:36.415Z,28
2016-02-17T06:39:36.450Z,28
2016-02-17T06:40:36.422Z,36
2016-02-17T06:41:36.471Z,36
2016-02-17T06:42:36.412Z,36
2016-02-17T06:43:36.445Z,40
2016-02-17T06:44:36.417Z,40
2016-02-17T06:45:36.434Z,40
2016-02-17T06:46:36.422Z,40
2016-02-17T06:47:36.426Z,40
2016-02-17T06:48:36.396Z,48
2016-02-17T06:49:36.431Z,44
2016-02-17T06:50:36.417Z,52
2016-02-17T06:51:36.404Z,56
2016-02-17T06:52:36.407Z,60
2016-02-17T06:53:36.409Z,52
2016-02-17T06:54:36.427Z,56
2016-02-17T06:55:36.415Z,56
2016-02-17T06:56:36.418Z,56
2016-02-17T06:57:36.420Z,56
2016-02-17T06:58:36.407Z,60
2016-02-17T06:59:36.410Z,64
2016-02-17T07:00:36.428Z,64
2016-02-17T07:01:36.415Z,64
2016-02-17T07:02:36.419Z,68
2016-02-17T07:03:36.422Z,72
2016-02-17T07:04:36.423Z,72
2016-02-17T07:05:36.394Z,76
2016-02-17T07:06:36.397Z,80
2016-02-17T07:07:36.400Z,80
2016-02-17T07:08:36.388Z,88
2016-02-17T07:09:36.391Z,84
2016-02-17T07:10:36.393Z,88
2016-02-17T07:11:36.380Z,92
2016-02-17T07:12:36.383Z,96
2016-02-17T07:13:36.432Z,104
2016-02-17T07:14:36.388Z,108
2016-02-17T07:15:36.390Z,112
2016-02-17T07:16:36.425Z,116
2016-02-17T07:17:36.381Z,120
2016-02-17T07:18:36.367Z,124
2016-02-17T07:19:36.401Z,124
2016-02-17T07:20:36.389Z,128
2016-02-17T07:21:36.391Z,132
2016-02-17T07:22:36.410Z,140
2016-02-17T07:23:36.364Z,140
2016-02-17T07:24:36.384Z,136
2016-02-17T07:25:36.386Z,140
2016-02-17T07:26:36.373Z,148
2016-02-17T07:27:36.361Z,152
2016-02-17T07:28:36.378Z,160
2016-02-17T07:29:36.397Z,176
2016-02-17T07:30:36.369Z,172
2016-02-17T07:31:36.402Z,176
2016-02-17T07:32:36.375Z,184
2016-02-17T07:33:36.377Z,188
2016-02-17T07:34:36.380Z,196
2016-02-17T07:35:36.397Z,200
2016-02-17T07:36:36.353Z,208
2016-02-17T07:37:36.356Z,212
2016-02-17T07:38:36.374Z,220
2016-02-17T07:39:36.361Z,228
2016-02-17T07:40:36.364Z,240
2016-02-17T07:41:36.367Z,256
2016-02-17T07:42:36.369Z,276
2016-02-17T07:43:36.372Z,292
2016-02-17T07:44:36.219Z,304
2016-02-17T07:45:36.346Z,324
2016-02-17T07:46:36.348Z,340
2016-02-17T07:47:36.383Z,364
2016-02-17T07:48:36.354Z,388
2016-02-17T07:49:36.339Z,412
2016-02-17T07:50:36.324Z,432
2016-02-17T07:51:36.311Z,452
2016-02-17T07:52:36.297Z,464
2016-02-17T07:53:36.284Z,476
2016-02-17T07:54:36.272Z,488
2016-02-17T07:55:36.252Z,500
2016-02-17T07:56:36.266Z,516
2016-02-17T07:57:36.231Z,528
2016-02-17T07:58:36.227Z,540
2016-02-17T07:59:36.241Z,544
2016-02-17T08:00:36.225Z,548
2016-02-17T08:01:36.211Z,548
2016-02-17T08:02:36.244Z,540
2016-02-17T08:03:36.213Z,520
2016-02-17T08:04:36.043Z,512
2016-02-17T08:05:36.216Z,488
2016-02-17T08:06:36.233Z,464
2016-02-17T08:07:36.204Z,440
2016-02-17T08:08:36.222Z,428
2016-02-17T08:09:36.224Z,424
2016-02-17T08:10:36.194Z,432
2016-02-17T08:11:36.228Z,444
2016-02-17T08:12:36.231Z,456
2016-02-17T08:13:36.201Z,480
2016-02-17T08:14:36.219Z,508
2016-02-17T08:15:36.222Z,552
2016-02-17T08:16:36.177Z,592
2016-02-17T08:17:36.197Z,632
2016-02-17T08:18:36.199Z,672
2016-02-17T08:19:36.217Z,708
2016-02-17T08:20:36.219Z,744
2016-02-17T08:21:36.191Z,788
2016-02-17T08:22:36.210Z,832
2016-02-17T08:23:36.181Z,876
2016-02-17T08:24:36.185Z,916
2016-02-17T08:25:36.202Z,956
2016-02-17T08:26:36.174Z,996
2016-02-17T08:27:36.177Z,1024
2016-02-17T08:28:36.211Z,1056
2016-02-17T08:29:36.166Z,1088
2016-02-17T08:30:36.169Z,1124
2016-02-17T08:31:36.172Z,1168
2016-02-17T08:32:36.221Z,1212
2016-02-17T08:33:36.176Z,1264
2016-02-17T08:34:36.180Z,1320
2016-02-17T08:35:36.198Z,1384
2016-02-17T08:36:36.170Z,1464
2016-02-17T08:37:36.172Z,1544
2016-02-17T08:38:36.190Z,1612
2016-02-17T08:39:36.162Z,1656
2016-02-17T08:40:36.165Z,1680
2016-02-17T08:41:36.167Z,1692
2016-02-17T08:42:36.170Z,1684
2016-02-17T08:43:36.157Z,1648
2016-02-17T08:44:36.160Z,1596
2016-02-17T08:45:36.163Z,1540
2016-02-17T08:46:36.165Z,1520
2016-02-17T08:47:36.168Z,1520
2016-02-17T08:48:36.156Z,1528
2016-02-17T08:49:36.173Z,1556
2016-02-17T08:50:36.145Z,1596
2016-02-17T08:51:36.147Z,1636
2016-02-17T08:52:36.150Z,1672
2016-02-17T08:53:36.152Z,1692
2016-02-17T08:54:36.155Z,1700
2016-02-17T08:55:36.143Z,1688
2016-02-17T08:56:36.146Z,1680
2016-02-17T08:57:36.149Z,1680
2016-02-17T08:58:36.151Z,1692
2016-02-17T08:59:36.169Z,1700
2016-02-17T09:00:36.140Z,1712
2016-02-17T09:01:36.143Z,1724
2016-02-17T09:02:36.146Z,1724
2016-02-17T09:03:36.133Z,1724
2016-02-17T09:04:36.168Z,1740
2016-02-17T09:05:36.138Z,1764
2016-02-17T09:06:36.141Z,1772
2016-02-17T09:07:36.159Z,1772
2016-02-17T09:08:36.146Z,1776
2016-02-17T09:09:36.134Z,1792
2016-02-17T09:10:36.120Z,1804
2016-02-17T09:11:36.139Z,1812
2016-02-17T09:12:36.125Z,1812
2016-02-17T09:13:36.129Z,1828
2016-02-17T09:14:36.148Z,1852
2016-02-17T09:15:36.134Z,1880
2016-02-17T09:16:36.121Z,1904
2016-02-17T09:17:36.155Z,1904
2016-02-17T09:18:36.126Z,1880
2016-02-17T09:19:36.128Z,1856
2016-02-17T09:20:36.116Z,1840
2016-02-17T09:21:36.119Z,1828
2016-02-17T09:22:36.121Z,1816
2016-02-17T09:23:36.140Z,1804
2016-02-17T09:24:36.127Z,1788
2016-02-17T09:25:36.177Z,1744
2016-02-17T09:26:36.132Z,1688
2016-02-17T09:27:36.119Z,1644
2016-02-17T09:28:36.121Z,1580
2016-02-17T09:29:36.125Z,1508
2016-02-17T09:30:36.127Z,1424
2016-02-17T09:31:36.115Z,1336
2016-02-17T09:32:36.117Z,1280
2016-02-17T09:33:36.120Z,1284
2016-02-17T09:34:36.123Z,1288
2016-02-17T09:35:36.109Z,1320
2016-02-17T09:36:36.113Z,1376
2016-02-17T09:37:36.132Z,1432
2016-02-17T09:38:36.102Z,1448
2016-02-17T09:39:36.105Z,1444
2016-02-17T09:40:36.107Z,1456
2016-02-17T09:41:36.110Z,1508
2016-02-17T09:42:36.113Z,1556
2016-02-17T09:43:36.115Z,1560
2016-02-17T09:44:36.103Z,1568
2016-02-17T09:45:36.105Z,1548
2016-02-17T09:46:36.108Z,1488
2016-02-17T09:47:36.111Z,1396
2016-02-17T09:48:36.098Z,1312
2016-02-17T09:49:36.116Z,1272
2016-02-17T09:50:36.103Z,1260
2016-02-17T09:51:36.090Z,1292
2016-02-17T09:52:36.093Z,1352
2016-02-17T09:53:36.095Z,1428
2016-02-17T09:54:36.130Z,1496
2016-02-17T09:55:36.100Z,1540
2016-02-17T09:56:36.103Z,1556
2016-02-17T09:57:36.106Z,1560
2016-02-17T09:58:36.109Z,1560
2016-02-17T09:59:36.128Z,1580
2016-02-17T10:00:36.114Z,1576
2016-02-17T10:01:36.086Z,1548
2016-02-17T10:02:36.136Z,1532
2016-02-17T10:03:36.091Z,1544
2016-02-17T10:04:36.093Z,1588
2016-02-17T10:05:36.096Z,1648
2016-02-17T10:06:36.115Z,1712
2016-02-17T10:07:36.087Z,1776
2016-02-17T10:08:36.089Z,1828
2016-02-17T10:09:36.107Z,1848
2016-02-17T10:10:36.079Z,1856
2016-02-17T10:11:36.081Z,1848
2016-02-17T10:12:36.146Z,1828
2016-02-17T10:13:36.087Z,1836
2016-02-17T10:14:36.089Z,1896
2016-02-17T10:15:36.109Z,2000
2016-02-17T10:16:36.079Z,2124
2016-02-17T10:17:36.082Z,2224
2016-02-17T10:18:36.100Z,2260
2016-02-17T10:19:36.087Z,2252
2016-02-17T10:20:36.075Z,2172
2016-02-17T10:21:36.077Z,2048
2016-02-17T10:22:36.095Z,1940
2016-02-17T10:23:36.067Z,1856
2016-02-17T10:24:36.085Z,1808
2016-02-17T10:25:36.088Z,1824
2016-02-17T10:26:36.091Z,1864
2016-02-17T10:27:36.078Z,1840
2016-02-17T10:28:36.096Z,1724
2016-02-17T10:29:36.067Z,1556
2016-02-17T10:30:36.070Z,1400
2016-02-17T10:31:36.073Z,1336
2016-02-17T10:32:36.091Z,1320
2016-02-17T10:33:36.078Z,1312
2016-02-17T10:34:36.097Z,1288
2016-02-17T10:35:36.068Z,1284
2016-02-17T10:36:36.102Z,1340
2016-02-17T10:37:36.074Z,1428
2016-02-17T10:38:36.061Z,1520
2016-02-17T10:39:36.064Z,1564
2016-02-17T10:40:36.082Z,1548
2016-02-17T10:41:36.069Z,1512
2016-02-17T10:42:36.072Z,1500
2016-02-17T10:43:36.092Z,1500
2016-02-17T10:44:36.157Z,1524
2016-02-17T10:45:35.603Z,1572
2016-02-17T10:46:36.292Z,1624
2016-02-17T10:47:36.347Z,1644
2016-02-17T10:48:36.069Z,1644
2016-02-17T10:49:36.086Z,1640
2016-02-17T10:50:36.074Z,1640
2016-02-17T10:51:36.077Z,1676
2016-02-17T10:52:36.095Z,1724
2016-02-17T10:53:36.051Z,1756
2016-02-17T10:54:36.054Z,1788
2016-02-17T10:55:36.056Z,1852
2016-02-17T10:56:36.054Z,1944
2016-02-17T10:57:36.057Z,2084
2016-02-17T10:58:36.059Z,2268
2016-02-17T10:59:36.062Z,2384
2016-02-17T11:00:36.065Z,2388
2016-02-17T11:01:36.067Z,2396
2016-02-17T11:02:36.070Z,2400
2016-02-17T11:03:36.073Z,2380
2016-02-17T11:04:36.057Z,2376
2016-02-17T11:05:36.060Z,2428
2016-02-17T11:06:36.078Z,2512
2016-02-17T11:07:35.893Z,2624
2016-02-17T11:08:36.052Z,2740
2016-02-17T11:09:36.054Z,2820
2016-02-17T11:10:36.058Z,2860
2016-02-17T11:11:36.060Z,2872
2016-02-17T11:12:36.079Z,2872
2016-02-17T11:13:36.050Z,2884
2016-02-17T11:14:36.068Z,2944
2016-02-17T11:15:36.103Z,3016
2016-02-17T11:16:36.059Z,3036
2016-02-17T11:17:36.062Z,2992
2016-02-17T11:18:36.048Z,2916
2016-02-17T11:19:36.051Z,2856
2016-02-17T11:20:36.037Z,2848
2016-02-17T11:21:36.056Z,2864
2016-02-17T11:22:36.059Z,2868
2016-02-17T11:23:36.031Z,2824
2016-02-17T11:24:36.048Z,2756
2016-02-17T11:25:36.083Z,2764
2016-02-17T11:26:36.086Z,2828
2016-02-17T11:27:36.041Z,2896
2016-02-17T11:28:36.044Z,2912
2016-02-17T11:29:36.047Z,2916
2016-02-17T11:30:36.065Z,2912
2016-02-17T11:31:36.036Z,2936
2016-02-17T11:32:36.055Z,2912
2016-02-17T11:33:36.058Z,2684
2016-02-17T11:34:36.108Z,2384
2016-02-17T11:35:36.047Z,2284
2016-02-17T11:36:36.050Z,2400
2016-02-17T11:37:36.115Z,2536
2016-02-17T11:38:36.040Z,2596
2016-02-17T11:39:36.042Z,2612
2016-02-17T11:40:36.060Z,2600
2016-02-17T11:41:36.063Z,2552
2016-02-17T11:42:36.051Z,2428
2016-02-17T11:43:36.085Z,2244
2016-02-17T11:44:36.087Z,2028
2016-02-17T11:45:36.137Z,1916
2016-02-17T11:46:36.062Z,1980
2016-02-17T11:47:36.065Z,2112
2016-02-17T11:48:36.083Z,2248
2016-02-17T11:49:36.070Z,2268
2016-02-17T11:50:36.025Z,2132
2016-02-17T11:51:36.044Z,1964
2016-02-17T11:52:36.046Z,1876
2016-02-17T11:53:36.034Z,1840
2016-02-17T11:54:36.052Z,1844
2016-02-17T11:55:36.039Z,1872
2016-02-17T11:56:36.042Z,1912
2016-02-17T11:57:36.045Z,1968
2016-02-17T11:58:36.047Z,2084
2016-02-17T11:59:36.051Z,2180
2016-02-17T12:00:36.037Z,2164
2016-02-17T12:01:36.055Z,2080
2016-02-17T12:02:36.059Z,2024
2016-02-17T12:03:36.045Z,2084
2016-02-17T12:04:36.095Z,2156
2016-02-17T12:05:36.071Z,2156
2016-02-17T12:06:36.058Z,2180
2016-02-17T12:07:36.029Z,2224
2016-02-17T12:08:36.047Z,2200
2016-02-17T12:09:36.050Z,2080
2016-02-17T12:10:36.038Z,1960
2016-02-17T12:11:36.071Z,1900
2016-02-17T12:12:36.043Z,1868
2016-02-17T12:13:36.046Z,1864
2016-02-17T12:14:36.064Z,1916
2016-02-17T12:15:36.066Z,1988
2016-02-17T12:16:36.085Z,1952
2016-02-17T12:17:36.056Z,1900
2016-02-17T12:18:36.060Z,1948
2016-02-17T12:19:36.062Z,2040
2016-02-17T12:20:36.048Z,2132
2016-02-17T12:21:36.036Z,2072
2016-02-17T12:22:36.054Z,1936
2016-02-17T12:23:36.041Z,1924
2016-02-17T12:24:36.043Z,1984
2016-02-17T12:25:36.046Z,2024
2016-02-17T12:26:36.049Z,2004
2016-02-17T12:27:36.052Z,1924
2016-02-17T12:28:36.054Z,1852
2016-02-17T12:29:36.056Z,1848
2016-02-17T12:30:36.060Z,1912
2016-02-17T12:31:36.047Z,1964
2016-02-17T12:32:36.050Z,2044
2016-02-17T12:33:36.068Z,2184
2016-02-17T12:34:36.039Z,2300
2016-02-17T12:35:36.042Z,2260
2016-02-17T12:36:36.061Z,2192
2016-02-17T12:37:36.063Z,2180
2016-02-17T12:38:36.050Z,2104
2016-02-17T12:39:36.053Z,2040
2016-02-17T12:40:36.056Z,2060
2016-02-17T12:41:36.043Z,2040
2016-02-17T12:42:36.046Z,2004
2016-02-17T12:43:36.049Z,2024
2016-02-17T12:44:36.051Z,2048
2016-02-17T12:45:36.054Z,2008
2016-02-17T12:46:36.041Z,1944
2016-02-17T12:47:36.043Z,1896
2016-02-17T12:48:36.062Z,1836
2016-02-17T12:49:36.065Z,1812
2016-02-17T12:50:36.035Z,1864
2016-02-17T12:51:36.054Z,1928
2016-02-17T12:52:36.057Z,2064
2016-02-17T12:53:36.028Z,2164
2016-02-17T12:54:36.046Z,2232
2016-02-17T12:55:36.049Z,2268
2016-02-17T12:56:36.036Z,2300
2016-02-17T12:57:36.039Z,2388
2016-02-17T12:58:36.042Z,2484
2016-02-17T12:59:36.044Z,2484
2016-02-17T13:00:36.048Z,2468
2016-02-17T13:01:36.050Z,2444
2016-02-17T13:02:36.099Z,2404
2016-02-17T13:03:36.056Z,2332
2016-02-17T13:04:36.042Z,2324
2016-02-17T13:05:36.045Z,2456
2016-02-17T13:06:36.047Z,2468
2016-02-17T13:07:36.050Z,2324
2016-02-17T13:08:36.069Z,2204
2016-02-17T13:09:36.040Z,2108
2016-02-17T13:10:36.058Z,1992
2016-02-17T13:11:36.044Z,2004
2016-02-17T13:12:36.047Z,2016
2016-02-17T13:13:36.050Z,2096
2016-02-17T13:14:36.053Z,2192
2016-02-17T13:15:36.071Z,2324
2016-02-17T13:16:36.043Z,2592
2016-02-17T13:17:36.061Z,2788
2016-02-17T13:18:36.049Z,2860
2016-02-17T13:19:36.052Z,2828
2016-02-17T13:20:36.054Z,2704
2016-02-17T13:21:36.071Z,2660
2016-02-17T13:22:36.060Z,2636
2016-02-17T13:23:36.062Z,2492
2016-02-17T13:24:36.111Z,2256
2016-02-17T13:25:36.037Z,2076
2016-02-17T13:26:36.039Z,1920
2016-02-17T13:27:36.073Z,1836
2016-02-17T13:28:36.045Z,1832
2016-02-17T13:29:36.047Z,1772
2016-02-17T13:30:36.081Z,1680
2016-02-17T13:31:36.037Z,1608
2016-02-17T13:32:36.055Z,1604
2016-02-17T13:33:36.073Z,1604
2016-02-17T13:34:36.044Z,1600
2016-02-17T13:35:36.064Z,1648
2016-02-17T13:36:36.066Z,1720
2016-02-17T13:37:36.053Z,1664
2016-02-17T13:38:36.055Z,1556
2016-02-17T13:39:36.074Z,1512
2016-02-17T13:40:36.045Z,1460
2016-02-17T13:41:36.063Z,1456
2016-02-17T13:42:36.066Z,1476
2016-02-17T13:43:36.037Z,1428
2016-02-17T13:44:36.056Z,1344
2016-02-17T13:45:36.074Z,1464
2016-02-17T13:46:36.046Z,1580
2016-02-17T13:47:36.049Z,1576
2016-02-17T13:48:36.051Z,1552
2016-02-17T13:49:36.054Z,1620
2016-02-17T13:50:36.119Z,1696
2016-02-17T13:51:36.043Z,1708
2016-02-17T13:52:36.062Z,1624
2016-02-17T13:53:36.065Z,1516
2016-02-17T13:54:36.051Z,1440
2016-02-17T13:55:36.055Z,1420
2016-02-17T13:56:36.057Z,1376
2016-02-17T13:57:36.044Z,1316
2016-02-17T13:58:36.062Z,1220
2016-02-17T13:59:36.049Z,1120
2016-02-17T14:00:36.067Z,1036
2016-02-17T14:01:36.054Z,1048
2016-02-17T14:02:36.057Z,1048